Time;durP1;ratioP1;P1;durP2;ratioP2;P2;SDS_P1;SDS_P2;PMS_P1;PMS_P2;Temp;Humidity;BMP_temperature;BMP_pressure;BME280_temperature;BME280_humidity;BME280_pressure;Samples;Min_cycle;Max_cycle;Signal;HPM_P1;HPM_P2
2022/07/12 00:01:54;;;;;;;;;;;22.70;99.90;;;;;;5096343;28;19908;-80
2022/07/12 00:04:19;;;;;;;;;;;22.70;99.90;;;;;;5096214;28;19916;-80
2022/07/12 00:06:45;;;;;;;;;;;22.70;99.90;;;;;;5096398;28;20376;-80
2022/07/12 00:09:10;;;;;;;;;;;22.70;99.90;;;;;;5096116;28;19946;-80
2022/07/12 00:11:36;;;;;;;;;;;22.70;99.90;;;;;;5096128;28;19909;-79
2022/07/12 00:14:02;;;;;;;;;;;22.60;99.90;;;;;;5096146;28;19916;-80
2022/07/12 00:16:28;;;;;;;;;;;22.50;99.90;;;;;;5094865;28;20372;-79
2022/07/12 00:18:54;;;;;;;;;;;22.50;99.90;;;;;;5095815;28;19915;-78
2022/07/12 00:21:19;;;;;;;;;;;22.40;99.90;;;;;;5095918;28;19959;-80
2022/07/12 00:23:45;;;;;;;;;;;22.40;99.90;;;;;;5095846;28;19908;-80
2022/07/12 00:26:10;;;;;;;;;;;22.30;99.90;;;;;;5095835;28;20012;-80
2022/07/12 00:28:36;;;;;;;;;;;22.20;99.90;;;;;;5096685;28;20326;-80
2022/07/12 00:31:03;;;;;;;;;;;22.10;99.90;;;;;;5096049;28;19935;-78
2022/07/12 00:33:28;;;;;;;;;;;22.10;99.90;;;;;;5095630;28;19908;-80
2022/07/12 00:35:54;;;;;;;;;;;22.00;99.90;;;;;;5095583;28;19958;-80
2022/07/12 00:38:19;;;;;;;;;;;22.00;99.90;;;;;;5095578;28;19915;-79
2022/07/12 00:40:45;;;;;;;;;;;22.00;99.90;;;;;;5095663;28;20015;-79
2022/07/12 00:43:11;;;;;;;;;;;21.90;99.90;;;;;;5095501;28;19908;-80
2022/07/12 00:45:36;;;;;;;;;;;21.90;99.90;;;;;;5077161;28;19916;-79
2022/07/12 00:48:02;;;;;;;;;;;21.80;99.90;;;;;;5095284;28;19908;-80
2022/07/12 00:50:27;;;;;;;;;;;21.80;99.90;;;;;;5095467;28;19915;-79
2022/07/12 00:52:54;;;;;;;;;;;21.60;99.90;;;;;;5095379;28;20372;-80
2022/07/12 00:55:20;;;;;;;;;;;21.40;99.90;;;;;;5095180;28;19919;-80
2022/07/12 00:57:49;;;;;;;;;;;21.40;99.90;;;;;;5095228;28;19908;-80
2022/07/12 01:00:19;;;;;;;;;;;21.40;99.90;;;;;;5095183;28;19915;-79
2022/07/12 01:02:46;;;;;;;;;;;21.00;99.90;;;;;;5094451;28;19914;-81
2022/07/12 01:05:13;;;;;;;;;;;21.00;99.90;;;;;;5095008;28;20375;-79
2022/07/12 01:07:38;;;;;;;;;;;21.20;99.90;;;;;;5094988;28;19908;-80
2022/07/12 01:10:05;;;;;;;;;;;21.20;99.90;;;;;;5094997;28;19908;-79
2022/07/12 01:12:30;;;;;;;;;;;21.20;99.90;;;;;;5094904;28;19908;-80
2022/07/12 01:14:56;;;;;;;;;;;21.30;99.90;;;;;;5094938;28;19908;-79
2022/07/12 01:17:23;;;;;;;;;;;21.10;99.90;;;;;;5094758;28;19909;-80
2022/07/12 01:19:50;;;;;;;;;;;20.90;99.90;;;;;;5094677;28;19912;-80
2022/07/12 01:22:17;;;;;;;;;;;20.80;99.90;;;;;;5094846;28;19908;-79
2022/07/12 01:24:43;;;;;;;;;;;20.90;99.90;;;;;;5094690;28;19919;-80
2022/07/12 01:27:08;;;;;;;;;;;20.90;99.90;;;;;;5094672;28;19915;-80
2022/07/12 01:29:35;;;;;;;;;;;21.00;99.90;;;;;;5094825;28;20276;-80
2022/07/12 01:34:45;;;;;;;;;;;21.20;99.90;;;;;;5094518;28;19915;-79
2022/07/12 01:37:13;;;;;;;;;;;21.20;99.90;;;;;;5094447;28;20290;-80
2022/07/12 01:39:38;;;;;;;;;;;21.10;99.90;;;;;;5094407;28;19966;-79
2022/07/12 01:42:04;;;;;;;;;;;21.00;99.90;;;;;;5094023;28;19924;-80
2022/07/12 01:44:29;;;;;;;;;;;21.00;99.90;;;;;;5094270;28;20011;-78
2022/07/12 01:46:55;;;;;;;;;;;20.90;99.90;;;;;;5094413;28;19912;-79
2022/07/12 01:49:20;;;;;;;;;;;20.70;99.90;;;;;;5094276;28;20280;-80
2022/07/12 01:51:46;;;;;;;;;;;20.20;99.90;;;;;;5094452;28;19956;-78
2022/07/12 01:54:11;;;;;;;;;;;20.30;99.90;;;;;;5094337;28;19908;-80
2022/07/12 01:56:37;;;;;;;;;;;20.50;99.90;;;;;;5094117;28;20375;-79
2022/07/12 01:59:03;;;;;;;;;;;20.50;99.90;;;;;;5094044;28;19916;-79
2022/07/12 02:01:28;;;;;;;;;;;20.50;99.90;;;;;;5094508;28;20498;-79
2022/07/12 02:03:54;;;;;;;;;;;20.50;99.90;;;;;;5075873;28;19908;-80
2022/07/12 02:06:20;;;;;;;;;;;20.60;99.90;;;;;;5093940;28;20360;-80
2022/07/12 02:08:45;;;;;;;;;;;20.50;99.90;;;;;;5093948;28;19908;-80
2022/07/12 02:11:11;;;;;;;;;;;20.30;99.90;;;;;;5094044;28;19909;-79
2022/07/12 02:13:37;;;;;;;;;;;20.30;99.90;;;;;;5093954;28;20253;-80
2022/07/12 02:16:04;;;;;;;;;;;20.20;99.90;;;;;;5093858;28;19954;-79
2022/07/12 02:18:31;;;;;;;;;;;20.10;99.90;;;;;;5093955;28;20342;-79
2022/07/12 02:20:57;;;;;;;;;;;20.10;99.90;;;;;;5093774;28;19915;-80
2022/07/12 02:23:22;;;;;;;;;;;20.30;99.90;;;;;;5075649;28;19908;-79
2022/07/12 02:25:48;;;;;;;;;;;20.40;99.90;;;;;;5093700;28;19915;-80
2022/07/12 02:28:14;;;;;;;;;;;20.30;99.90;;;;;;5093896;28;19908;-80
2022/07/12 02:30:39;;;;;;;;;;;20.40;99.90;;;;;;5094256;28;19912;-79
2022/07/12 02:33:05;;;;;;;;;;;20.40;99.90;;;;;;5093687;28;19920;-79
2022/07/12 02:35:30;;;;;;;;;;;20.40;99.90;;;;;;5093643;28;20076;-79
2022/07/12 02:37:56;;;;;;;;;;;20.30;99.90;;;;;;5093874;28;19916;-79
2022/07/12 02:43:05;;;;;;;;;;;20.20;99.90;;;;;;5097514;28;19960;-79
2022/07/12 02:45:31;;;;;;;;;;;20.00;99.90;;;;;;5098156;28;20023;-80
2022/07/12 02:47:56;;;;;;;;;;;19.90;99.90;;;;;;5097973;28;19908;-79
2022/07/12 02:50:22;;;;;;;;;;;19.90;99.90;;;;;;5097672;28;20324;-80
2022/07/12 02:52:48;;;;;;;;;;;19.90;99.90;;;;;;5097666;28;20395;-78
2022/07/12 02:55:13;;;;;;;;;;;19.80;99.90;;;;;;5097600;28;20360;-79
2022/07/12 02:57:39;;;;;;;;;;;19.80;99.90;;;;;;5097495;28;19912;-80
2022/07/12 03:00:06;;;;;;;;;;;19.70;99.90;;;;;;5097451;28;19908;-79
2022/07/12 03:02:32;;;;;;;;;;;19.40;99.90;;;;;;5079303;28;19981;-78
2022/07/12 03:04:57;;;;;;;;;;;19.10;99.90;;;;;;5097313;28;20367;-80
2022/07/12 03:07:23;;;;;;;;;;;19.20;99.90;;;;;;5097304;28;20261;-80
2022/07/12 03:09:49;;;;;;;;;;;19.30;99.90;;;;;;5097284;28;19927;-80
2022/07/12 03:12:14;;;;;;;;;;;19.30;99.90;;;;;;5097370;28;19908;-79
2022/07/12 03:14:40;;;;;;;;;;;19.20;99.90;;;;;;5097173;28;20016;-79
2022/07/12 03:17:05;;;;;;;;;;;19.30;99.90;;;;;;5097141;28;19908;-79
2022/07/12 03:19:31;;;;;;;;;;;19.40;99.90;;;;;;5097463;28;20004;-80
2022/07/12 03:21:56;;;;;;;;;;;19.40;99.90;;;;;;5097085;28;19916;-80
2022/07/12 03:24:22;;;;;;;;;;;19.60;99.90;;;;;;5096990;28;19912;-79
2022/07/12 03:26:48;;;;;;;;;;;19.70;99.90;;;;;;5097007;28;19992;-79
2022/07/12 03:29:15;;;;;;;;;;;19.70;99.90;;;;;;5097899;28;19908;-79
2022/07/12 03:31:41;;;;;;;;;;;19.80;99.90;;;;;;5096885;28;20269;-79
2022/07/12 03:34:06;;;;;;;;;;;19.80;99.90;;;;;;5078682;28;19914;-79
2022/07/12 03:36:32;;;;;;;;;;;19.70;99.90;;;;;;5096889;28;19912;-79
2022/07/12 03:38:57;;;;;;;;;;;19.60;99.90;;;;;;5096780;28;19915;-79
2022/07/12 03:41:23;;;;;;;;;;;19.60;99.90;;;;;;5096564;28;19933;-79
2022/07/12 03:43:49;;;;;;;;;;;19.50;99.90;;;;;;5096938;28;19931;-80
2022/07/12 03:46:15;;;;;;;;;;;19.50;99.90;;;;;;5096844;28;19908;-79
2022/07/12 03:48:40;;;;;;;;;;;19.40;99.90;;;;;;5096630;28;19908;-78
2022/07/12 03:51:06;;;;;;;;;;;19.40;99.90;;;;;;5096365;28;20326;-80
2022/07/12 03:53:31;;;;;;;;;;;19.30;99.90;;;;;;5096839;28;19916;-78
2022/07/12 03:55:57;;;;;;;;;;;19.30;99.90;;;;;;5096567;28;19908;-80
2022/07/12 03:58:23;;;;;;;;;;;19.30;99.90;;;;;;5096368;28;20395;-79
2022/07/12 04:00:48;;;;;;;;;;;19.30;99.90;;;;;;5096317;28;19915;-80
2022/07/12 04:03:14;;;;;;;;;;;19.20;99.90;;;;;;5096287;28;20399;-79
2022/07/12 04:05:39;;;;;;;;;;;19.20;99.90;;;;;;5096456;28;20006;-78
2022/07/12 04:08:05;;;;;;;;;;;19.10;99.90;;;;;;5096285;28;19915;-80
2022/07/12 04:10:31;;;;;;;;;;;19.10;99.90;;;;;;5096145;28;19908;-79
2022/07/12 04:12:57;;;;;;;;;;;19.10;99.90;;;;;;5096101;28;19939;-79
2022/07/12 04:15:22;;;;;;;;;;;19.10;99.90;;;;;;5096044;28;19908;-79
2022/07/12 04:17:48;;;;;;;;;;;19.00;99.90;;;;;;5096054;28;20307;-79
2022/07/12 04:20:13;;;;;;;;;;;19.00;99.90;;;;;;5096130;28;19916;-79
2022/07/12 04:22:39;;;;;;;;;;;19.00;99.90;;;;;;5095907;28;19935;-78
2022/07/12 04:25:08;;;;;;;;;;;19.00;99.90;;;;;;5096241;28;20007;-79
2022/07/12 04:27:34;;;;;;;;;;;19.00;99.90;;;;;;5096076;28;19957;-78
2022/07/12 04:29:59;;;;;;;;;;;18.90;99.90;;;;;;5096277;28;20308;-79
2022/07/12 04:32:25;;;;;;;;;;;18.90;99.90;;;;;;5077551;28;19915;-79
2022/07/12 04:34:50;;;;;;;;;;;18.90;99.90;;;;;;5096054;28;19929;-79
2022/07/12 04:37:16;;;;;;;;;;;18.90;99.90;;;;;;5095675;28;20307;-78
2022/07/12 04:39:41;;;;;;;;;;;19.00;99.90;;;;;;5095750;28;19914;-79
2022/07/12 04:42:07;;;;;;;;;;;18.90;99.90;;;;;;5095199;28;19923;-80
2022/07/12 04:44:32;;;;;;;;;;;19.00;99.90;;;;;;5095437;28;20035;-78
2022/07/12 04:46:58;;;;;;;;;;;19.00;99.90;;;;;;5095348;28;19953;-79
2022/07/12 04:49:24;;;;;;;;;;;19.00;99.90;;;;;;5095366;28;20340;-80
2022/07/12 04:51:49;;;;;;;;;;;19.00;99.90;;;;;;5095523;28;19912;-79
2022/07/12 04:54:15;;;;;;;;;;;19.10;99.90;;;;;;5095482;28;19912;-79
2022/07/12 04:56:40;;;;;;;;;;;19.20;99.90;;;;;;5095289;28;19915;-79
2022/07/12 04:59:06;;;;;;;;;;;19.20;99.90;;;;;;5095395;28;20289;-79
2022/07/12 05:01:32;;;;;;;;;;;19.30;99.90;;;;;;5095363;28;19908;-79
2022/07/12 05:03:58;;;;;;;;;;;19.30;99.90;;;;;;5094663;28;19912;-78
2022/07/12 05:06:23;;;;;;;;;;;19.30;99.90;;;;;;5095172;28;19994;-79
2022/07/12 05:08:49;;;;;;;;;;;19.30;99.90;;;;;;5095102;28;19912;-80
2022/07/12 05:11:15;;;;;;;;;;;19.30;99.90;;;;;;5095310;28;19909;-79
2022/07/12 05:13:40;;;;;;;;;;;19.40;99.90;;;;;;5095117;28;19908;-79
2022/07/12 05:16:07;;;;;;;;;;;19.40;99.90;;;;;;5094959;28;19947;-79
2022/07/12 05:18:33;;;;;;;;;;;19.50;99.90;;;;;;5095022;28;19908;-80
2022/07/12 05:20:58;;;;;;;;;;;19.50;99.90;;;;;;5095083;28;19908;-80
2022/07/12 05:23:24;;;;;;;;;;;19.60;99.90;;;;;;5094950;28;19908;-79
2022/07/12 05:25:50;;;;;;;;;;;19.60;99.90;;;;;;5094725;28;20007;-80
2022/07/12 05:28:15;;;;;;;;;;;19.70;99.90;;;;;;5094210;28;19912;-80
2022/07/12 05:30:42;;;;;;;;;;;19.70;99.90;;;;;;5094831;28;19987;-80
2022/07/12 05:33:07;;;;;;;;;;;19.90;99.90;;;;;;5095075;28;19908;-79
2022/07/12 05:35:33;;;;;;;;;;;20.00;99.90;;;;;;5076377;28;19991;-79
2022/07/12 05:37:58;;;;;;;;;;;20.00;99.90;;;;;;5094217;28;19912;-80
2022/07/12 05:40:24;;;;;;;;;;;20.00;99.90;;;;;;5093577;28;19919;-81
2022/07/12 05:42:51;;;;;;;;;;;20.10;99.90;;;;;;5093740;28;19973;-79
2022/07/12 05:45:16;;;;;;;;;;;20.20;99.90;;;;;;5093377;28;20018;-80
2022/07/12 05:47:42;;;;;;;;;;;20.30;99.90;;;;;;5093542;28;19946;-79
2022/07/12 05:50:08;;;;;;;;;;;20.40;99.90;;;;;;5093525;28;19972;-80
2022/07/12 05:55:18;;;;;;;;;;;20.60;99.90;;;;;;5092809;28;20007;-80
2022/07/12 05:57:43;;;;;;;;;;;20.80;99.90;;;;;;5090692;28;19940;-80
2022/07/12 06:00:09;;;;;;;;;;;20.90;99.90;;;;;;5093216;28;20505;-81
2022/07/12 06:02:35;;;;;;;;;;;21.00;99.90;;;;;;5093418;28;19908;-80
2022/07/12 06:05:01;;;;;;;;;;;21.00;99.90;;;;;;5073563;28;19913;-80
2022/07/12 06:07:28;;;;;;;;;;;21.10;99.90;;;;;;5093274;28;19908;-79
2022/07/12 06:09:54;;;;;;;;;;;21.30;99.90;;;;;;5091187;28;19909;-80
2022/07/12 06:12:20;;;;;;;;;;;21.40;99.90;;;;;;5093268;28;19912;-80
2022/07/12 06:14:46;;;;;;;;;;;21.40;99.90;;;;;;5092055;28;19920;-80
2022/07/12 06:17:11;;;;;;;;;;;21.50;99.90;;;;;;5094031;28;19908;-81
2022/07/12 06:19:37;;;;;;;;;;;21.70;99.90;;;;;;5093618;28;20460;-82
2022/07/12 06:22:02;;;;;;;;;;;21.70;99.90;;;;;;5093783;28;19944;-79
2022/07/12 06:24:28;;;;;;;;;;;21.90;99.90;;;;;;5093527;28;20406;-81
2022/07/12 06:26:54;;;;;;;;;;;22.00;99.90;;;;;;5093702;28;19915;-80
2022/07/12 06:29:19;;;;;;;;;;;22.10;99.90;;;;;;5093870;28;20010;-80
2022/07/12 06:31:45;;;;;;;;;;;22.20;99.90;;;;;;5093725;28;19908;-80
2022/07/12 06:34:10;;;;;;;;;;;22.30;99.90;;;;;;5093755;28;20007;-81
2022/07/12 06:36:36;;;;;;;;;;;22.40;99.90;;;;;;5093654;28;20283;-81
2022/07/12 06:39:01;;;;;;;;;;;22.50;99.90;;;;;;5093132;28;19908;-79
2022/07/12 06:41:29;;;;;;;;;;;22.70;99.90;;;;;;5092618;28;19916;-80
2022/07/12 06:43:54;;;;;;;;;;;22.70;99.90;;;;;;5092525;28;19935;-79
2022/07/12 06:46:20;;;;;;;;;;;22.90;99.90;;;;;;5074698;28;19996;-81
2022/07/12 06:48:46;;;;;;;;;;;23.00;99.90;;;;;;5092546;28;19914;-80
2022/07/12 06:51:11;;;;;;;;;;;23.10;99.90;;;;;;5093109;28;20011;-80
2022/07/12 06:53:37;;;;;;;;;;;23.30;99.90;;;;;;5093504;28;19908;-80
2022/07/12 06:56:03;;;;;;;;;;;23.40;99.90;;;;;;5093511;28;19909;-79
2022/07/12 06:58:29;;;;;;;;;;;23.50;99.90;;;;;;5093491;28;19908;-80
2022/07/12 07:00:54;;;;;;;;;;;23.60;99.90;;;;;;5093478;28;19999;-79
2022/07/12 07:03:20;;;;;;;;;;;23.60;99.90;;;;;;5093491;28;19908;-79
2022/07/12 07:05:45;;;;;;;;;;;23.80;99.90;;;;;;5093328;28;19950;-80
2022/07/12 07:08:11;;;;;;;;;;;23.80;99.90;;;;;;5093818;28;19915;-81
2022/07/12 07:10:36;;;;;;;;;;;23.80;99.90;;;;;;5094251;28;19948;-79
2022/07/12 07:13:02;;;;;;;;;;;23.90;99.90;;;;;;5093367;28;20376;-81
2022/07/12 07:15:28;;;;;;;;;;;24.10;99.90;;;;;;5093288;28;19915;-80
2022/07/12 07:17:53;;;;;;;;;;;24.20;99.90;;;;;;5093222;28;20412;-80
2022/07/12 07:20:19;;;;;;;;;;;24.40;99.90;;;;;;5093236;28;19935;-80
2022/07/12 07:22:45;;;;;;;;;;;24.50;99.90;;;;;;5093232;28;20391;-80
2022/07/12 07:25:11;;;;;;;;;;;24.70;99.90;;;;;;5093211;28;19962;-81
2022/07/12 07:27:38;;;;;;;;;;;24.60;99.90;;;;;;5096530;28;19908;-81
2022/07/12 07:32:48;;;;;;;;;;;24.90;99.90;;;;;;5096814;28;20295;-80
2022/07/12 07:35:13;;;;;;;;;;;25.10;99.90;;;;;;5096883;28;19908;-81
2022/07/12 07:37:39;;;;;;;;;;;25.20;99.90;;;;;;5096794;28;20003;-81
2022/07/12 07:40:05;;;;;;;;;;;25.20;99.90;;;;;;5096472;28;20372;-80
2022/07/12 07:42:30;;;;;;;;;;;25.70;99.90;;;;;;5097147;28;20011;-81
2022/07/12 07:44:56;;;;;;;;;;;28.20;98.20;;;;;;5096664;28;19916;-82
2022/07/12 07:47:21;;;;;;;;;;;31.00;90.90;;;;;;5096629;28;19915;-81
2022/07/12 07:49:47;;;;;;;;;;;32.70;81.80;;;;;;5078318;28;19980;-81
2022/07/12 07:52:13;;;;;;;;;;;34.10;77.60;;;;;;5096714;28;19939;-82
2022/07/12 07:54:38;;;;;;;;;;;35.10;74.60;;;;;;5096609;28;19908;-80
2022/07/12 07:57:04;;;;;;;;;;;35.50;71.80;;;;;;5096352;28;19943;-80
2022/07/12 07:59:29;;;;;;;;;;;35.40;70.70;;;;;;5097058;28;19919;-78
2022/07/12 08:01:55;;;;;;;;;;;35.60;69.50;;;;;;5097500;28;19915;-79
2022/07/12 08:04:21;;;;;;;;;;;35.80;68.90;;;;;;5096497;28;20293;-80
2022/07/12 08:06:48;;;;;;;;;;;35.20;68.50;;;;;;5096493;28;20349;-79
2022/07/12 08:09:14;;;;;;;;;;;34.20;69.80;;;;;;5096159;28;19908;-80
2022/07/12 08:11:40;;;;;;;;;;;34.70;69.50;;;;;;5096661;28;20319;-78
2022/07/12 08:14:05;;;;;;;;;;;34.10;69.60;;;;;;5096067;28;19909;-79
2022/07/12 08:16:31;;;;;;;;;;;34.10;69.70;;;;;;5096129;28;20382;-80
2022/07/12 08:18:57;;;;;;;;;;;34.10;70.00;;;;;;5095921;28;20287;-79
2022/07/12 08:21:23;;;;;;;;;;;33.80;70.50;;;;;;5077611;28;19969;-79
2022/07/12 08:23:49;;;;;;;;;;;33.50;71.10;;;;;;5096103;28;19908;-80
2022/07/12 08:26:14;;;;;;;;;;;33.30;70.70;;;;;;5077631;28;19942;-79
2022/07/12 08:28:40;;;;;;;;;;;32.80;71.80;;;;;;5095945;28;19912;-80
2022/07/12 08:31:06;;;;;;;;;;;32.90;71.80;;;;;;5095844;28;19915;-78
2022/07/12 08:33:31;;;;;;;;;;;32.80;72.10;;;;;;5095692;28;20279;-80
2022/07/12 08:35:57;;;;;;;;;;;32.90;71.70;;;;;;5095665;28;20388;-79
2022/07/12 08:38:23;;;;;;;;;;;33.00;71.90;;;;;;5094609;28;19956;-80
2022/07/12 08:40:49;;;;;;;;;;;33.60;70.90;;;;;;5095550;28;20300;-78
2022/07/12 08:43:14;;;;;;;;;;;33.80;70.50;;;;;;5095549;28;19908;-79
2022/07/12 08:45:43;;;;;;;;;;;33.30;69.90;;;;;;5095377;28;20272;-79
2022/07/12 08:48:08;;;;;;;;;;;33.60;70.70;;;;;;5095350;28;19915;-80
2022/07/12 08:50:34;;;;;;;;;;;33.40;69.50;;;;;;5095572;28;19944;-79
2022/07/12 08:53:00;;;;;;;;;;;32.70;71.00;;;;;;5095443;28;19916;-80
2022/07/12 08:55:26;;;;;;;;;;;33.20;70.80;;;;;;5095203;28;19953;-78
2022/07/12 08:57:53;;;;;;;;;;;33.50;69.30;;;;;;5095246;28;20326;-79
2022/07/12 09:00:19;;;;;;;;;;;33.60;69.60;;;;;;5095169;28;19908;-81
2022/07/12 09:02:49;;;;;;;;;;;34.10;69.00;;;;;;5095137;28;19962;-81
2022/07/12 09:05:15;;;;;;;;;;;34.20;68.80;;;;;;5095248;28;20276;-78
2022/07/12 09:07:41;;;;;;;;;;;33.80;68.60;;;;;;5095009;28;20360;-81
2022/07/12 09:10:08;;;;;;;;;;;33.90;68.60;;;;;;5095517;28;19953;-79
2022/07/12 09:12:34;;;;;;;;;;;34.10;69.10;;;;;;5094933;28;19915;-81
2022/07/12 09:15:32;;;;;;;;;;;34.50;68.10;;;;;;5094868;28;20360;-80
2022/07/12 09:17:59;;;;;;;;;;;34.30;67.40;;;;;;5060821;28;19908;-80
2022/07/12 09:20:26;;;;;;;;;;;34.20;68.10;;;;;;5095099;28;19912;-78
2022/07/12 09:22:53;;;;;;;;;;;35.10;67.40;;;;;;5094641;28;19912;-79
2022/07/12 09:25:18;;;;;;;;;;;35.10;66.60;;;;;;5094641;28;19920;-80
2022/07/12 09:27:48;;;;;;;;;;;35.30;65.70;;;;;;5094696;28;19909;-80
2022/07/12 09:30:14;;;;;;;;;;;34.90;65.00;;;;;;5094617;28;20292;-79
2022/07/12 09:38:19;;;;;;;;;;;35.40;64.30;;;;;;5094727;28;19954;-79
2022/07/12 09:40:45;;;;;;;;;;;35.70;64.30;;;;;;5094299;28;20326;-80
2022/07/12 09:43:11;;;;;;;;;;;35.50;64.20;;;;;;5094478;28;19962;-79
2022/07/12 09:45:39;;;;;;;;;;;35.60;63.60;;;;;;5094261;28;19965;-79
2022/07/12 09:48:05;;;;;;;;;;;36.70;62.70;;;;;;5094646;28;20001;-80
2022/07/12 09:50:32;;;;;;;;;;;37.20;61.90;;;;;;5094057;28;19908;-79
2022/07/12 09:52:59;;;;;;;;;;;37.40;61.40;;;;;;5094270;28;19908;-79
2022/07/12 09:55:26;;;;;;;;;;;36.90;61.00;;;;;;5094261;28;19908;-80
2022/07/12 09:57:55;;;;;;;;;;;36.60;61.60;;;;;;5094185;28;19958;-79
2022/07/12 10:00:21;;;;;;;;;;;36.60;62.50;;;;;;5094123;28;19908;-78
2022/07/12 10:02:48;;;;;;;;;;;37.40;60.70;;;;;;5094218;28;20376;-81
2022/07/12 10:05:14;;;;;;;;;;;37.20;59.70;;;;;;5094184;28;19965;-80
2022/07/12 10:07:40;;;;;;;;;;;37.40;60.30;;;;;;5093957;28;19958;-80
2022/07/12 10:10:06;;;;;;;;;;;37.40;60.20;;;;;;5094556;28;19939;-81
2022/07/12 10:12:32;;;;;;;;;;;38.30;60.30;;;;;;5093922;28;19915;-80
2022/07/12 10:15:02;;;;;;;;;;;38.90;59.80;;;;;;5094063;28;19909;-80
2022/07/12 10:17:29;;;;;;;;;;;38.80;58.90;;;;;;5075896;28;19917;-79
2022/07/12 10:20:14;;;;;;;;;;;37.90;59.70;;;;;;5093862;28;19939;-80
2022/07/12 10:22:40;;;;;;;;;;;38.00;59.80;;;;;;5093904;28;19918;-80
2022/07/12 10:25:29;;;;;;;;;;;38.50;59.10;;;;;;5093738;28;19916;-81
2022/07/12 10:27:54;;;;;;;;;;;38.20;59.00;;;;;;5094212;28;20475;-80
2022/07/12 10:30:22;;;;;;;;;;;38.80;58.30;;;;;;5093787;28;20007;-80
2022/07/12 10:32:48;;;;;;;;;;;39.70;57.30;;;;;;5093734;28;19908;-80
2022/07/12 10:35:18;;;;;;;;;;;40.50;58.30;;;;;;5093726;28;19908;-79
2022/07/12 10:38:03;;;;;;;;;;;41.10;57.50;;;;;;5093671;28;19915;-81
2022/07/12 10:40:33;;;;;;;;;;;41.10;58.40;;;;;;5093625;28;20365;-80
2022/07/12 10:43:04;;;;;;;;;;;40.30;54.00;;;;;;5093731;28;19908;-79
2022/07/12 10:45:49;;;;;;;;;;;40.30;52.50;;;;;;5093518;28;20027;-79
2022/07/12 10:48:17;;;;;;;;;;;40.00;51.00;;;;;;5093681;28;19908;-81
2022/07/12 10:50:45;;;;;;;;;;;40.10;49.80;;;;;;5093712;28;19909;-80
2022/07/12 10:53:29;;;;;;;;;;;40.50;49.90;;;;;;5093593;28;19908;-81
2022/07/12 10:56:07;;;;;;;;;;;40.40;49.00;;;;;;5093515;28;20369;-80
2022/07/12 10:58:35;;;;;;;;;;;40.40;48.80;;;;;;5093485;28;20372;-81
2022/07/12 11:01:02;;;;;;;;;;;41.10;47.90;;;;;;5094278;28;20387;-81
2022/07/12 11:03:37;;;;;;;;;;;40.30;48.10;;;;;;5097451;28;19908;-79
2022/07/12 11:06:03;;;;;;;;;;;40.40;47.70;;;;;;5097366;28;19962;-80
2022/07/12 11:08:34;;;;;;;;;;;40.90;48.10;;;;;;5097442;28;19915;-80
2022/07/12 11:11:00;;;;;;;;;;;41.80;47.00;;;;;;5098024;28;19913;-80
2022/07/12 11:13:25;;;;;;;;;;;42.10;47.20;;;;;;5097309;28;20284;-80
2022/07/12 11:16:00;;;;;;;;;;;42.20;46.90;;;;;;5097465;28;19992;-80
2022/07/12 11:18:33;;;;;;;;;;;41.50;46.10;;;;;;5097273;28;19908;-81
2022/07/12 11:20:59;;;;;;;;;;;41.70;44.80;;;;;;5097121;28;19915;-80
2022/07/12 11:23:28;;;;;;;;;;;41.60;44.70;;;;;;5097011;28;20395;-80
2022/07/12 11:25:57;;;;;;;;;;;41.30;45.20;;;;;;5097149;28;20356;-80
2022/07/12 11:28:29;;;;;;;;;;;41.80;45.20;;;;;;5096967;28;19993;-80
2022/07/12 11:31:08;;;;;;;;;;;42.10;45.20;;;;;;5097100;28;19908;-81
2022/07/12 11:33:36;;;;;;;;;;;42.90;44.20;;;;;;5096869;28;20010;-80
2022/07/12 11:36:06;;;;;;;;;;;43.00;44.50;;;;;;5078611;28;19947;-81
2022/07/12 11:38:32;;;;;;;;;;;43.10;44.40;;;;;;5096955;28;20382;-80
2022/07/12 11:40:58;;;;;;;;;;;43.30;44.10;;;;;;5096673;28;19916;-79
2022/07/12 11:43:25;;;;;;;;;;;43.00;43.50;;;;;;5096693;28;19934;-80
2022/07/12 11:45:51;;;;;;;;;;;42.20;43.80;;;;;;5096600;28;20284;-80
2022/07/12 11:48:17;;;;;;;;;;;41.80;43.40;;;;;;5096520;28;20021;-80
2022/07/12 11:50:44;;;;;;;;;;;41.10;43.10;;;;;;5096567;28;19915;-79
2022/07/12 11:53:17;;;;;;;;;;;40.60;43.30;;;;;;5096531;28;20307;-80
2022/07/12 11:56:02;;;;;;;;;;;40.90;43.30;;;;;;5096894;28;19998;-80
2022/07/12 11:58:28;;;;;;;;;;;42.10;43.40;;;;;;5096954;28;19908;-79
2022/07/12 12:00:54;;;;;;;;;;;43.70;42.60;;;;;;5096552;28;19961;-80
2022/07/12 12:03:22;;;;;;;;;;;43.30;42.70;;;;;;5096549;28;19916;-80
2022/07/12 12:05:48;;;;;;;;;;;43.00;43.00;;;;;;5096218;28;19919;-80
2022/07/12 12:08:14;;;;;;;;;;;43.10;43.10;;;;;;5096244;28;20360;-80
2022/07/12 12:10:41;;;;;;;;;;;43.10;43.30;;;;;;5096871;28;20394;-79
2022/07/12 12:13:12;;;;;;;;;;;42.10;43.00;;;;;;5096376;28;19909;-80
2022/07/12 12:15:38;;;;;;;;;;;42.00;42.90;;;;;;5096230;28;19908;-81
2022/07/12 12:18:07;;;;;;;;;;;41.60;42.80;;;;;;5096333;28;19915;-81
2022/07/12 12:20:33;;;;;;;;;;;41.20;42.90;;;;;;5096213;28;19915;-81
2022/07/12 12:23:03;;;;;;;;;;;41.10;43.90;;;;;;5096112;28;19908;-79
2022/07/12 12:25:30;;;;;;;;;;;41.30;43.20;;;;;;5095856;28;19912;-80
2022/07/12 12:27:56;;;;;;;;;;;41.30;42.70;;;;;;5095837;28;19908;-80
2022/07/12 12:30:23;;;;;;;;;;;41.90;42.10;;;;;;5096004;28;19908;-80
2022/07/12 12:32:55;;;;;;;;;;;41.60;42.70;;;;;;5095944;28;20280;-80
2022/07/12 12:35:22;;;;;;;;;;;42.20;42.20;;;;;;5095623;28;19962;-80
2022/07/12 12:37:55;;;;;;;;;;;42.50;42.40;;;;;;5045353;28;19990;-79
2022/07/12 12:40:22;;;;;;;;;;;43.20;41.50;;;;;;5074914;28;19916;-80
2022/07/12 12:42:48;;;;;;;;;;;43.90;40.90;;;;;;5075126;28;19916;-80
2022/07/12 12:45:22;;;;;;;;;;;43.20;40.20;;;;;;5074632;28;19917;-80
2022/07/12 12:47:58;;;;;;;;;;;42.40;41.00;;;;;;5081442;28;19915;-80
2022/07/12 12:50:37;;;;;;;;;;;41.90;41.90;;;;;;5095122;28;19908;-80
2022/07/12 12:53:07;;;;;;;;;;;41.70;41.60;;;;;;5094260;28;19961;-80
2022/07/12 12:55:32;;;;;;;;;;;42.00;41.60;;;;;;5094123;28;19915;-80
2022/07/12 12:57:58;;;;;;;;;;;43.00;41.40;;;;;;5093839;28;19908;-79
2022/07/12 13:00:23;;;;;;;;;;;44.00;40.50;;;;;;5094986;28;19915;-79
2022/07/12 13:02:49;;;;;;;;;;;44.80;40.00;;;;;;5094682;28;20184;-80
2022/07/12 13:05:15;;;;;;;;;;;44.90;41.10;;;;;;5094517;28;19912;-80
2022/07/12 13:07:40;;;;;;;;;;;43.70;42.00;;;;;;5089275;28;20357;-80
2022/07/12 13:10:06;;;;;;;;;;;42.40;42.40;;;;;;5074438;28;19933;-80
2022/07/12 13:12:33;;;;;;;;;;;42.50;42.10;;;;;;5074814;28;19908;-80
2022/07/12 13:14:59;;;;;;;;;;;42.50;42.30;;;;;;5074361;28;19913;-79
2022/07/12 13:17:24;;;;;;;;;;;42.60;42.00;;;;;;5073747;28;20269;-80
2022/07/12 13:19:50;;;;;;;;;;;43.20;41.80;;;;;;5074201;28;19944;-79
2022/07/12 13:22:16;;;;;;;;;;;43.60;42.50;;;;;;5074104;28;19915;-81
2022/07/12 13:24:41;;;;;;;;;;;42.60;42.20;;;;;;5073482;28;19919;-80
2022/07/12 13:27:07;;;;;;;;;;;42.90;41.60;;;;;;5074042;28;19909;-80
2022/07/12 13:29:33;;;;;;;;;;;40.80;42.70;;;;;;5089463;28;19908;-80
2022/07/12 13:31:59;;;;;;;;;;;41.20;42.80;;;;;;5094109;28;19908;-80
2022/07/12 13:34:24;;;;;;;;;;;41.60;43.10;;;;;;5074572;28;20020;-80
2022/07/12 13:36:50;;;;;;;;;;;42.40;41.90;;;;;;5073615;28;19912;-79
2022/07/12 13:42:01;;;;;;;;;;;43.20;41.00;;;;;;5073646;28;19927;-80
2022/07/12 13:44:26;;;;;;;;;;;44.00;41.20;;;;;;5073175;28;19963;-79
2022/07/12 13:46:52;;;;;;;;;;;45.00;41.50;;;;;;5073720;28;19916;-81
2022/07/12 13:49:18;;;;;;;;;;;43.70;41.60;;;;;;5073333;28;19909;-81
2022/07/12 13:51:43;;;;;;;;;;;44.00;42.70;;;;;;5073821;28;19916;-81
2022/07/12 13:54:09;;;;;;;;;;;44.50;42.80;;;;;;5073215;28;19969;-79
2022/07/12 13:56:35;;;;;;;;;;;44.80;41.00;;;;;;5073683;28;19915;-81
2022/07/12 13:59:00;;;;;;;;;;;45.80;40.40;;;;;;5073620;28;20403;-80
2022/07/12 14:01:26;;;;;;;;;;;46.40;40.50;;;;;;5073253;28;20292;-81
2022/07/12 14:03:51;;;;;;;;;;;46.40;40.70;;;;;;5073185;28;19944;-80
2022/07/12 14:06:17;;;;;;;;;;;46.10;40.20;;;;;;5073418;28;20253;-81
2022/07/12 14:08:43;;;;;;;;;;;45.20;40.30;;;;;;5073449;28;19916;-80
2022/07/12 14:11:08;;;;;;;;;;;45.60;40.20;;;;;;5074097;28;20380;-80
2022/07/12 14:13:34;;;;;;;;;;;45.50;39.40;;;;;;5072738;28;19908;-81
2022/07/12 14:16:00;;;;;;;;;;;45.30;39.30;;;;;;5073455;28;19912;-80
2022/07/12 14:18:25;;;;;;;;;;;44.40;39.70;;;;;;5073609;28;20330;-80
2022/07/12 14:20:51;;;;;;;;;;;44.00;39.20;;;;;;5073467;28;19908;-81
2022/07/12 14:23:17;;;;;;;;;;;44.30;37.80;;;;;;5073173;28;19932;-81
2022/07/12 14:25:42;;;;;;;;;;;44.50;37.50;;;;;;5073174;28;19912;-81
2022/07/12 14:28:08;;;;;;;;;;;44.40;37.00;;;;;;5073368;28;19909;-80
2022/07/12 14:30:33;;;;;;;;;;;44.10;37.40;;;;;;5073211;28;20395;-80
2022/07/12 14:33:00;;;;;;;;;;;44.40;36.80;;;;;;5072971;28;19912;-81